This is the latest recevied weather packets stored in our database for station/object DG6YGE-6. If no packets are shown the sender has not sent any weather packets the latest 10 day(s).
| Time | Temp. | Humidity | Pressure | Rain* | Wind** | Luminosity | Snow |
|---|---|---|---|---|---|---|---|
| 1777664350 | 17.78° C | 58% | 1021.8 hPa | 0 mm | - | 0 W/m² | - |
| 1777663750 | 18.33° C | 56% | 1021.8 hPa | 0 mm | - | 0 W/m² | - |
| 1777663150 | 18.33° C | 54% | 1021.8 hPa | 0 mm | - | 0 W/m² | - |
| 1777662550 | 18.89° C | 54% | 1021.7 hPa | 0 mm | - | 0 W/m² | - |
| 1777661950 | 19.44° C | 52% | 1021.7 hPa | 0 mm | - | 4 W/m² | - |
| 1777661350 | 19.44° C | 52% | 1021.7 hPa | 0 mm | - | 8 W/m² | - |
| 1777660750 | 20° C | 51% | 1021.7 hPa | 0 mm | - | 12 W/m² | - |
| 1777660150 | 20° C | 49% | 1021.6 hPa | 0 mm | - | 17 W/m² | - |
| 1777659550 | 20.56° C | 48% | 1021.6 hPa | 0 mm | - | 29 W/m² | - |
| 1777658950 | 20.56° C | 48% | 1021.5 hPa | 0 mm | - | 44 W/m² | - |
| 1777658350 | 21.11° C | 47% | 1021.4 hPa | 0 mm | - | 55 W/m² | - |
| 1777657750 | 21.11° C | 47% | 1021.4 hPa | 0 mm | - | 85 W/m² | - |
| 1777657150 | 21.11° C | 47% | 1021.4 hPa | 0 mm | - | 111 W/m² | - |
| 1777656550 | 21.67° C | 47% | 1021.5 hPa | 0 mm | - | 137 W/m² | - |
| 1777655950 | 21.67° C | 45% | 1021.5 hPa | 0 mm | - | 160 W/m² | - |
| 1777655350 | 21.67° C | 46% | 1021.6 hPa | 0 mm | - | 149 W/m² | - |
| 1777654750 | 21.67° C | 45% | 1021.7 hPa | 0 mm | - | 165 W/m² | - |
| 1777654150 | 22.22° C | 44% | 1021.8 hPa | 0 mm | - | 201 W/m² | - |
| 1777653550 | 22.22° C | 43% | 1021.9 hPa | 0 mm | - | 214 W/m² | - |
| 1777652950 | 22.22° C | 44% | 1022 hPa | 0 mm | - | 215 W/m² | - |
| 1777652350 | 22.22° C | 44% | 1022.1 hPa | 0 mm | - | 203 W/m² | - |
| 1777651750 | 22.22° C | 43% | 1022.3 hPa | 0 mm | - | 292 W/m² | - |
| 1777650550 | 22.22° C | 41% | 1022.4 hPa | 0 mm | - | 302 W/m² | - |
| 1777648151 | 22.22° C | 42% | 1022.7 hPa | 0 mm | - | 482 W/m² | - |
| 1777647551 | 22.22° C | 42% | 1023 hPa | 0 mm | - | 504 W/m² | - |
* Rain latest hour (hover to see other rain measurements)
** Current wind speed in m/s (hover to see current wind gust speed)